sensor_id;sensor_type;location;lat;lon;timestamp;P1;durP1;ratioP1;P2;durP2;ratioP2
57635;SDS011;43465;50.728;4.160;2023-04-16T00:01:39;14.40;;;6.30;;
57635;SDS011;43465;50.728;4.160;2023-04-16T00:04:05;14.88;;;5.80;;
57635;SDS011;43465;50.728;4.160;2023-04-16T00:06:30;12.05;;;5.45;;
57635;SDS011;43465;50.728;4.160;2023-04-16T00:08:56;12.02;;;5.85;;
57635;SDS011;43465;50.728;4.160;2023-04-16T00:11:22;14.15;;;6.03;;
57635;SDS011;43465;50.728;4.160;2023-04-16T00:13:47;12.57;;;5.93;;
57635;SDS011;43465;50.728;4.160;2023-04-16T00:16:13;15.38;;;5.97;;
57635;SDS011;43465;50.728;4.160;2023-04-16T00:18:39;9.38;;;6.47;;
57635;SDS011;43465;50.728;4.160;2023-04-16T00:21:05;11.50;;;6.75;;
57635;SDS011;43465;50.728;4.160;2023-04-16T00:23:31;11.23;;;6.25;;
57635;SDS011;43465;50.728;4.160;2023-04-16T00:25:57;10.38;;;6.40;;
57635;SDS011;43465;50.728;4.160;2023-04-16T00:28:24;10.27;;;6.47;;
57635;SDS011;43465;50.728;4.160;2023-04-16T00:30:50;13.25;;;6.03;;
57635;SDS011;43465;50.728;4.160;2023-04-16T00:33:16;7.47;;;6.20;;
57635;SDS011;43465;50.728;4.160;2023-04-16T00:35:43;9.85;;;5.80;;
57635;SDS011;43465;50.728;4.160;2023-04-16T00:38:10;13.15;;;6.07;;
57635;SDS011;43465;50.728;4.160;2023-04-16T00:40:36;11.55;;;5.75;;
57635;SDS011;43465;50.728;4.160;2023-04-16T00:43:02;12.05;;;6.07;;
57635;SDS011;43465;50.728;4.160;2023-04-16T00:45:28;10.27;;;6.45;;
57635;SDS011;43465;50.728;4.160;2023-04-16T00:47:54;12.68;;;5.82;;
57635;SDS011;43465;50.728;4.160;2023-04-16T00:50:20;11.45;;;6.05;;
57635;SDS011;43465;50.728;4.160;2023-04-16T00:52:47;11.55;;;5.53;;
57635;SDS011;43465;50.728;4.160;2023-04-16T00:55:14;13.35;;;5.93;;
57635;SDS011;43465;50.728;4.160;2023-04-16T00:57:42;9.18;;;5.60;;
57635;SDS011;43465;50.728;4.160;2023-04-16T01:00:08;9.60;;;5.68;;
57635;SDS011;43465;50.728;4.160;2023-04-16T01:02:35;8.45;;;5.93;;
57635;SDS011;43465;50.728;4.160;2023-04-16T01:05:01;7.97;;;5.55;;
57635;SDS011;43465;50.728;4.160;2023-04-16T01:07:28;8.63;;;5.38;;
57635;SDS011;43465;50.728;4.160;2023-04-16T01:09:53;8.57;;;4.50;;
57635;SDS011;43465;50.728;4.160;2023-04-16T01:12:20;10.70;;;4.43;;
57635;SDS011;43465;50.728;4.160;2023-04-16T01:14:45;11.18;;;4.20;;
57635;SDS011;43465;50.728;4.160;2023-04-16T01:17:11;7.28;;;4.70;;
57635;SDS011;43465;50.728;4.160;2023-04-16T01:19:37;5.72;;;4.68;;
57635;SDS011;43465;50.728;4.160;2023-04-16T01:22:03;9.30;;;4.93;;
57635;SDS011;43465;50.728;4.160;2023-04-16T01:24:29;10.45;;;5.13;;
57635;SDS011;43465;50.728;4.160;2023-04-16T01:26:58;7.68;;;5.28;;
57635;SDS011;43465;50.728;4.160;2023-04-16T01:29:24;10.60;;;4.60;;
57635;SDS011;43465;50.728;4.160;2023-04-16T01:31:50;10.20;;;3.80;;
57635;SDS011;43465;50.728;4.160;2023-04-16T01:34:16;7.82;;;3.88;;
57635;SDS011;43465;50.728;4.160;2023-04-16T01:36:42;8.63;;;3.95;;
57635;SDS011;43465;50.728;4.160;2023-04-16T01:39:08;10.13;;;3.35;;
57635;SDS011;43465;50.728;4.160;2023-04-16T01:41:39;8.02;;;3.35;;
57635;SDS011;43465;50.728;4.160;2023-04-16T01:44:05;7.38;;;3.38;;
57635;SDS011;43465;50.728;4.160;2023-04-16T01:46:31;5.78;;;3.40;;
57635;SDS011;43465;50.728;4.160;2023-04-16T01:48:59;8.82;;;3.55;;
57635;SDS011;43465;50.728;4.160;2023-04-16T01:51:26;7.05;;;3.55;;
57635;SDS011;43465;50.728;4.160;2023-04-16T01:53:52;5.45;;;3.20;;
57635;SDS011;43465;50.728;4.160;2023-04-16T01:56:18;7.57;;;3.80;;
57635;SDS011;43465;50.728;4.160;2023-04-16T01:58:44;6.25;;;3.70;;
57635;SDS011;43465;50.728;4.160;2023-04-16T02:01:11;7.38;;;3.15;;
57635;SDS011;43465;50.728;4.160;2023-04-16T02:03:38;7.00;;;3.00;;
57635;SDS011;43465;50.728;4.160;2023-04-16T02:06:04;7.07;;;3.22;;
57635;SDS011;43465;50.728;4.160;2023-04-16T02:08:29;8.98;;;2.95;;
57635;SDS011;43465;50.728;4.160;2023-04-16T02:10:55;10.93;;;3.10;;
57635;SDS011;43465;50.728;4.160;2023-04-16T02:13:21;8.38;;;2.97;;
57635;SDS011;43465;50.728;4.160;2023-04-16T02:15:49;12.02;;;2.83;;
57635;SDS011;43465;50.728;4.160;2023-04-16T02:18:16;7.88;;;2.35;;
57635;SDS011;43465;50.728;4.160;2023-04-16T02:20:42;7.78;;;2.30;;
57635;SDS011;43465;50.728;4.160;2023-04-16T02:23:09;9.25;;;2.47;;
57635;SDS011;43465;50.728;4.160;2023-04-16T02:25:39;8.70;;;2.50;;
57635;SDS011;43465;50.728;4.160;2023-04-16T02:28:09;8.32;;;2.38;;
57635;SDS011;43465;50.728;4.160;2023-04-16T02:30:41;7.28;;;1.65;;
57635;SDS011;43465;50.728;4.160;2023-04-16T02:33:09;7.45;;;1.90;;
57635;SDS011;43465;50.728;4.160;2023-04-16T02:35:35;8.05;;;2.13;;
57635;SDS011;43465;50.728;4.160;2023-04-16T02:38:02;7.63;;;1.58;;
57635;SDS011;43465;50.728;4.160;2023-04-16T02:40:29;6.45;;;1.40;;
57635;SDS011;43465;50.728;4.160;2023-04-16T02:42:55;8.40;;;1.75;;
57635;SDS011;43465;50.728;4.160;2023-04-16T02:45:21;5.65;;;1.60;;
57635;SDS011;43465;50.728;4.160;2023-04-16T02:47:48;5.90;;;1.60;;
57635;SDS011;43465;50.728;4.160;2023-04-16T02:50:15;5.13;;;1.45;;
57635;SDS011;43465;50.728;4.160;2023-04-16T02:52:41;2.65;;;1.20;;
57635;SDS011;43465;50.728;4.160;2023-04-16T02:55:07;8.23;;;1.40;;
57635;SDS011;43465;50.728;4.160;2023-04-16T02:57:33;6.80;;;2.03;;
57635;SDS011;43465;50.728;4.160;2023-04-16T02:59:59;5.28;;;1.30;;
57635;SDS011;43465;50.728;4.160;2023-04-16T03:02:25;6.80;;;1.60;;
57635;SDS011;43465;50.728;4.160;2023-04-16T03:04:51;5.45;;;1.50;;
57635;SDS011;43465;50.728;4.160;2023-04-16T03:07:20;6.30;;;1.60;;
57635;SDS011;43465;50.728;4.160;2023-04-16T03:09:46;4.32;;;1.65;;
57635;SDS011;43465;50.728;4.160;2023-04-16T03:12:11;4.43;;;1.30;;
57635;SDS011;43465;50.728;4.160;2023-04-16T03:14:37;7.43;;;1.63;;
57635;SDS011;43465;50.728;4.160;2023-04-16T03:17:03;4.10;;;1.40;;
57635;SDS011;43465;50.728;4.160;2023-04-16T03:19:28;10.60;;;1.45;;
57635;SDS011;43465;50.728;4.160;2023-04-16T03:21:54;4.57;;;1.45;;
57635;SDS011;43465;50.728;4.160;2023-04-16T03:24:20;6.97;;;1.58;;
57635;SDS011;43465;50.728;4.160;2023-04-16T03:26:45;8.02;;;1.50;;
57635;SDS011;43465;50.728;4.160;2023-04-16T03:29:11;4.97;;;1.30;;
57635;SDS011;43465;50.728;4.160;2023-04-16T03:31:37;6.50;;;1.38;;
57635;SDS011;43465;50.728;4.160;2023-04-16T03:34:02;6.45;;;1.58;;
57635;SDS011;43465;50.728;4.160;2023-04-16T03:36:28;6.32;;;1.30;;
57635;SDS011;43465;50.728;4.160;2023-04-16T03:38:54;7.30;;;1.67;;
57635;SDS011;43465;50.728;4.160;2023-04-16T03:41:19;5.53;;;1.60;;
57635;SDS011;43465;50.728;4.160;2023-04-16T03:43:45;8.23;;;1.55;;
57635;SDS011;43465;50.728;4.160;2023-04-16T03:46:11;5.10;;;1.55;;
57635;SDS011;43465;50.728;4.160;2023-04-16T03:48:36;6.72;;;1.70;;
57635;SDS011;43465;50.728;4.160;2023-04-16T03:51:02;2.55;;;1.67;;
57635;SDS011;43465;50.728;4.160;2023-04-16T03:53:28;7.07;;;2.05;;
57635;SDS011;43465;50.728;4.160;2023-04-16T03:55:54;6.30;;;2.10;;
57635;SDS011;43465;50.728;4.160;2023-04-16T03:58:19;6.88;;;2.03;;
57635;SDS011;43465;50.728;4.160;2023-04-16T04:00:45;4.38;;;2.42;;
57635;SDS011;43465;50.728;4.160;2023-04-16T04:03:11;5.70;;;2.67;;
57635;SDS011;43465;50.728;4.160;2023-04-16T04:05:41;9.25;;;2.92;;
57635;SDS011;43465;50.728;4.160;2023-04-16T04:08:07;8.50;;;2.40;;
57635;SDS011;43465;50.728;4.160;2023-04-16T04:10:33;6.28;;;2.50;;
57635;SDS011;43465;50.728;4.160;2023-04-16T04:13:03;7.57;;;2.78;;
57635;SDS011;43465;50.728;4.160;2023-04-16T04:15:30;5.82;;;2.55;;
57635;SDS011;43465;50.728;4.160;2023-04-16T04:17:56;8.95;;;2.50;;
57635;SDS011;43465;50.728;4.160;2023-04-16T04:20:22;7.13;;;2.40;;
57635;SDS011;43465;50.728;4.160;2023-04-16T04:22:48;6.88;;;2.50;;
57635;SDS011;43465;50.728;4.160;2023-04-16T04:25:15;7.10;;;2.10;;
57635;SDS011;43465;50.728;4.160;2023-04-16T04:27:41;8.15;;;2.70;;
57635;SDS011;43465;50.728;4.160;2023-04-16T04:30:07;6.07;;;2.20;;
57635;SDS011;43465;50.728;4.160;2023-04-16T04:32:33;8.95;;;2.80;;
57635;SDS011;43465;50.728;4.160;2023-04-16T04:35:00;4.18;;;2.10;;
57635;SDS011;43465;50.728;4.160;2023-04-16T04:37:26;8.70;;;2.35;;
57635;SDS011;43465;50.728;4.160;2023-04-16T04:39:52;4.95;;;2.05;;
57635;SDS011;43465;50.728;4.160;2023-04-16T04:42:19;12.63;;;2.63;;
57635;SDS011;43465;50.728;4.160;2023-04-16T04:44:45;8.13;;;2.10;;
57635;SDS011;43465;50.728;4.160;2023-04-16T04:47:11;9.00;;;1.98;;
57635;SDS011;43465;50.728;4.160;2023-04-16T04:49:38;6.30;;;2.00;;
57635;SDS011;43465;50.728;4.160;2023-04-16T04:52:04;7.57;;;2.08;;
57635;SDS011;43465;50.728;4.160;2023-04-16T04:54:30;8.00;;;2.20;;
57635;SDS011;43465;50.728;4.160;2023-04-16T04:56:56;6.20;;;2.10;;
57635;SDS011;43465;50.728;4.160;2023-04-16T04:59:22;6.47;;;2.20;;
57635;SDS011;43465;50.728;4.160;2023-04-16T05:01:48;7.45;;;2.03;;
57635;SDS011;43465;50.728;4.160;2023-04-16T05:04:14;7.03;;;2.38;;
57635;SDS011;43465;50.728;4.160;2023-04-16T05:06:40;6.90;;;2.50;;
57635;SDS011;43465;50.728;4.160;2023-04-16T05:09:06;6.35;;;2.60;;
57635;SDS011;43465;50.728;4.160;2023-04-16T05:11:35;11.55;;;2.92;;
57635;SDS011;43465;50.728;4.160;2023-04-16T05:14:05;6.40;;;2.17;;
57635;SDS011;43465;50.728;4.160;2023-04-16T05:16:31;13.05;;;2.80;;
57635;SDS011;43465;50.728;4.160;2023-04-16T05:19:00;4.63;;;2.20;;
57635;SDS011;43465;50.728;4.160;2023-04-16T05:21:25;9.18;;;2.40;;
57635;SDS011;43465;50.728;4.160;2023-04-16T05:23:51;9.02;;;2.55;;
57635;SDS011;43465;50.728;4.160;2023-04-16T05:26:17;4.07;;;2.05;;
57635;SDS011;43465;50.728;4.160;2023-04-16T05:28:43;6.53;;;2.30;;
57635;SDS011;43465;50.728;4.160;2023-04-16T05:31:08;9.73;;;3.50;;
57635;SDS011;43465;50.728;4.160;2023-04-16T05:33:34;6.80;;;2.22;;
57635;SDS011;43465;50.728;4.160;2023-04-16T05:36:00;9.55;;;1.98;;
57635;SDS011;43465;50.728;4.160;2023-04-16T05:38:25;3.95;;;2.00;;
57635;SDS011;43465;50.728;4.160;2023-04-16T05:40:51;5.18;;;2.08;;
57635;SDS011;43465;50.728;4.160;2023-04-16T05:43:16;3.85;;;1.80;;
57635;SDS011;43465;50.728;4.160;2023-04-16T05:45:42;8.70;;;2.65;;
57635;SDS011;43465;50.728;4.160;2023-04-16T05:48:08;8.93;;;2.45;;
57635;SDS011;43465;50.728;4.160;2023-04-16T05:50:34;13.13;;;2.53;;
57635;SDS011;43465;50.728;4.160;2023-04-16T05:53:04;7.82;;;2.25;;
57635;SDS011;43465;50.728;4.160;2023-04-16T05:55:31;4.72;;;2.13;;
57635;SDS011;43465;50.728;4.160;2023-04-16T05:57:56;4.70;;;2.50;;
57635;SDS011;43465;50.728;4.160;2023-04-16T06:00:22;6.28;;;2.38;;
57635;SDS011;43465;50.728;4.160;2023-04-16T06:02:48;6.75;;;2.22;;
57635;SDS011;43465;50.728;4.160;2023-04-16T06:05:14;8.00;;;2.88;;
57635;SDS011;43465;50.728;4.160;2023-04-16T06:07:40;6.75;;;2.90;;
57635;SDS011;43465;50.728;4.160;2023-04-16T06:10:06;9.32;;;2.45;;
57635;SDS011;43465;50.728;4.160;2023-04-16T06:12:32;7.25;;;2.22;;
57635;SDS011;43465;50.728;4.160;2023-04-16T06:14:58;6.05;;;2.00;;
57635;SDS011;43465;50.728;4.160;2023-04-16T06:17:25;7.13;;;2.20;;
57635;SDS011;43465;50.728;4.160;2023-04-16T06:19:51;6.97;;;2.63;;
57635;SDS011;43465;50.728;4.160;2023-04-16T06:22:16;5.07;;;2.67;;
57635;SDS011;43465;50.728;4.160;2023-04-16T06:24:42;7.80;;;2.55;;
57635;SDS011;43465;50.728;4.160;2023-04-16T06:27:08;6.25;;;2.80;;
57635;SDS011;43465;50.728;4.160;2023-04-16T06:29:34;5.60;;;2.90;;
57635;SDS011;43465;50.728;4.160;2023-04-16T06:32:00;5.28;;;2.47;;
57635;SDS011;43465;50.728;4.160;2023-04-16T06:34:26;9.90;;;3.15;;
57635;SDS011;43465;50.728;4.160;2023-04-16T06:36:52;4.50;;;2.67;;
57635;SDS011;43465;50.728;4.160;2023-04-16T06:39:18;6.10;;;3.00;;
57635;SDS011;43465;50.728;4.160;2023-04-16T06:41:46;7.03;;;3.20;;
57635;SDS011;43465;50.728;4.160;2023-04-16T06:44:12;5.72;;;3.03;;
57635;SDS011;43465;50.728;4.160;2023-04-16T06:46:38;11.07;;;3.55;;
57635;SDS011;43465;50.728;4.160;2023-04-16T06:49:04;6.28;;;3.10;;
57635;SDS011;43465;50.728;4.160;2023-04-16T06:51:30;7.22;;;2.92;;
57635;SDS011;43465;50.728;4.160;2023-04-16T06:53:56;7.20;;;2.95;;
57635;SDS011;43465;50.728;4.160;2023-04-16T06:56:21;9.57;;;3.40;;
57635;SDS011;43465;50.728;4.160;2023-04-16T06:58:47;8.55;;;3.42;;
57635;SDS011;43465;50.728;4.160;2023-04-16T07:01:13;7.75;;;3.17;;
57635;SDS011;43465;50.728;4.160;2023-04-16T07:03:39;7.40;;;3.47;;
57635;SDS011;43465;50.728;4.160;2023-04-16T07:06:05;7.70;;;3.42;;
57635;SDS011;43465;50.728;4.160;2023-04-16T07:08:30;10.52;;;3.28;;
57635;SDS011;43465;50.728;4.160;2023-04-16T07:10:56;9.43;;;3.17;;
57635;SDS011;43465;50.728;4.160;2023-04-16T07:13:22;8.52;;;3.10;;
57635;SDS011;43465;50.728;4.160;2023-04-16T07:15:48;10.07;;;3.50;;
57635;SDS011;43465;50.728;4.160;2023-04-16T07:18:13;12.65;;;3.63;;
57635;SDS011;43465;50.728;4.160;2023-04-16T07:20:39;9.57;;;3.55;;
57635;SDS011;43465;50.728;4.160;2023-04-16T07:23:05;10.98;;;4.10;;
57635;SDS011;43465;50.728;4.160;2023-04-16T07:25:31;8.00;;;3.95;;
57635;SDS011;43465;50.728;4.160;2023-04-16T07:27:56;11.82;;;4.38;;
57635;SDS011;43465;50.728;4.160;2023-04-16T07:30:22;8.68;;;3.83;;
57635;SDS011;43465;50.728;4.160;2023-04-16T07:32:48;6.80;;;3.75;;
57635;SDS011;43465;50.728;4.160;2023-04-16T07:35:14;11.55;;;4.20;;
57635;SDS011;43465;50.728;4.160;2023-04-16T07:37:40;14.82;;;3.72;;
57635;SDS011;43465;50.728;4.160;2023-04-16T07:40:06;12.27;;;4.20;;
57635;SDS011;43465;50.728;4.160;2023-04-16T07:42:32;9.95;;;4.18;;
57635;SDS011;43465;50.728;4.160;2023-04-16T07:44:58;6.82;;;3.58;;
57635;SDS011;43465;50.728;4.160;2023-04-16T07:47:24;10.48;;;4.47;;
57635;SDS011;43465;50.728;4.160;2023-04-16T07:49:51;12.13;;;4.68;;
57635;SDS011;43465;50.728;4.160;2023-04-16T07:52:17;11.00;;;4.80;;
57635;SDS011;43465;50.728;4.160;2023-04-16T07:54:43;7.38;;;4.10;;
57635;SDS011;43465;50.728;4.160;2023-04-16T07:57:09;9.18;;;4.78;;
57635;SDS011;43465;50.728;4.160;2023-04-16T07:59:36;12.40;;;4.97;;
57635;SDS011;43465;50.728;4.160;2023-04-16T08:02:01;9.85;;;4.70;;
57635;SDS011;43465;50.728;4.160;2023-04-16T08:04:28;9.82;;;5.35;;
57635;SDS011;43465;50.728;4.160;2023-04-16T08:06:54;12.88;;;5.38;;
57635;SDS011;43465;50.728;4.160;2023-04-16T08:09:21;14.20;;;5.88;;
57635;SDS011;43465;50.728;4.160;2023-04-16T08:11:47;10.55;;;5.43;;
57635;SDS011;43465;50.728;4.160;2023-04-16T08:14:14;11.45;;;5.07;;
57635;SDS011;43465;50.728;4.160;2023-04-16T08:16:40;12.43;;;5.90;;
57635;SDS011;43465;50.728;4.160;2023-04-16T08:19:06;10.38;;;5.90;;
57635;SDS011;43465;50.728;4.160;2023-04-16T08:21:32;11.13;;;5.40;;
57635;SDS011;43465;50.728;4.160;2023-04-16T08:23:58;12.95;;;5.65;;
57635;SDS011;43465;50.728;4.160;2023-04-16T08:26:23;10.00;;;5.57;;
57635;SDS011;43465;50.728;4.160;2023-04-16T08:28:49;11.48;;;5.25;;
57635;SDS011;43465;50.728;4.160;2023-04-16T08:31:15;9.93;;;5.45;;
57635;SDS011;43465;50.728;4.160;2023-04-16T08:33:40;14.00;;;5.18;;
57635;SDS011;43465;50.728;4.160;2023-04-16T08:36:06;8.50;;;5.22;;
57635;SDS011;43465;50.728;4.160;2023-04-16T08:38:32;10.88;;;4.75;;
57635;SDS011;43465;50.728;4.160;2023-04-16T08:40:59;9.05;;;5.22;;
57635;SDS011;43465;50.728;4.160;2023-04-16T08:43:27;11.38;;;4.97;;
57635;SDS011;43465;50.728;4.160;2023-04-16T08:46:01;9.52;;;5.03;;
57635;SDS011;43465;50.728;4.160;2023-04-16T08:48:31;10.02;;;5.00;;
57635;SDS011;43465;50.728;4.160;2023-04-16T08:50:59;10.13;;;4.90;;
57635;SDS011;43465;50.728;4.160;2023-04-16T08:53:31;7.97;;;4.75;;
57635;SDS011;43465;50.728;4.160;2023-04-16T08:56:04;8.10;;;4.45;;
57635;SDS011;43465;50.728;4.160;2023-04-16T08:58:33;7.85;;;4.35;;
57635;SDS011;43465;50.728;4.160;2023-04-16T09:01:02;8.80;;;4.15;;
57635;SDS011;43465;50.728;4.160;2023-04-16T09:03:31;9.38;;;4.30;;
57635;SDS011;43465;50.728;4.160;2023-04-16T09:05:57;7.20;;;4.05;;
57635;SDS011;43465;50.728;4.160;2023-04-16T09:08:27;7.63;;;3.78;;
57635;SDS011;43465;50.728;4.160;2023-04-16T09:10:54;11.13;;;4.47;;
57635;SDS011;43465;50.728;4.160;2023-04-16T09:13:21;10.23;;;4.93;;
57635;SDS011;43465;50.728;4.160;2023-04-16T09:15:50;7.50;;;4.70;;
57635;SDS011;43465;50.728;4.160;2023-04-16T09:18:21;10.10;;;4.85;;
57635;SDS011;43465;50.728;4.160;2023-04-16T09:20:47;10.88;;;5.07;;
57635;SDS011;43465;50.728;4.160;2023-04-16T09:23:15;11.70;;;4.72;;
57635;SDS011;43465;50.728;4.160;2023-04-16T09:25:41;8.27;;;4.72;;
57635;SDS011;43465;50.728;4.160;2023-04-16T09:28:07;10.10;;;5.30;;
57635;SDS011;43465;50.728;4.160;2023-04-16T09:30:33;14.73;;;5.88;;
57635;SDS011;43465;50.728;4.160;2023-04-16T09:33:17;13.05;;;5.10;;
57635;SDS011;43465;50.728;4.160;2023-04-16T09:35:50;7.75;;;4.55;;
57635;SDS011;43465;50.728;4.160;2023-04-16T09:38:17;9.07;;;5.18;;
57635;SDS011;43465;50.728;4.160;2023-04-16T09:40:44;9.00;;;5.50;;
57635;SDS011;43465;50.728;4.160;2023-04-16T09:43:15;9.00;;;5.07;;
57635;SDS011;43465;50.728;4.160;2023-04-16T09:45:48;10.65;;;5.15;;
57635;SDS011;43465;50.728;4.160;2023-04-16T09:48:20;10.80;;;6.32;;
57635;SDS011;43465;50.728;4.160;2023-04-16T09:50:56;12.15;;;6.03;;
57635;SDS011;43465;50.728;4.160;2023-04-16T09:53:26;11.43;;;5.90;;
57635;SDS011;43465;50.728;4.160;2023-04-16T09:55:56;11.77;;;5.78;;
57635;SDS011;43465;50.728;4.160;2023-04-16T09:58:23;12.25;;;6.70;;
57635;SDS011;43465;50.728;4.160;2023-04-16T10:00:54;13.82;;;6.22;;
57635;SDS011;43465;50.728;4.160;2023-04-16T10:03:29;9.38;;;5.88;;
57635;SDS011;43465;50.728;4.160;2023-04-16T10:08:38;12.60;;;6.32;;
57635;SDS011;43465;50.728;4.160;2023-04-16T10:11:13;10.65;;;6.38;;
57635;SDS011;43465;50.728;4.160;2023-04-16T10:13:39;12.10;;;6.78;;
57635;SDS011;43465;50.728;4.160;2023-04-16T10:16:05;10.60;;;5.72;;
57635;SDS011;43465;50.728;4.160;2023-04-16T10:18:33;17.17;;;6.55;;
57635;SDS011;43465;50.728;4.160;2023-04-16T10:21:02;11.18;;;6.10;;
57635;SDS011;43465;50.728;4.160;2023-04-16T10:23:28;11.70;;;5.65;;
57635;SDS011;43465;50.728;4.160;2023-04-16T10:25:54;11.43;;;5.82;;
57635;SDS011;43465;50.728;4.160;2023-04-16T10:28:22;8.70;;;5.35;;
57635;SDS011;43465;50.728;4.160;2023-04-16T10:30:49;9.32;;;5.40;;
57635;SDS011;43465;50.728;4.160;2023-04-16T10:33:19;10.90;;;5.13;;
57635;SDS011;43465;50.728;4.160;2023-04-16T10:35:46;10.18;;;5.07;;
57635;SDS011;43465;50.728;4.160;2023-04-16T10:38:24;8.77;;;5.50;;
57635;SDS011;43465;50.728;4.160;2023-04-16T10:41:01;7.63;;;6.25;;
57635;SDS011;43465;50.728;4.160;2023-04-16T10:43:47;10.60;;;5.63;;
57635;SDS011;43465;50.728;4.160;2023-04-16T10:46:16;11.75;;;5.20;;
57635;SDS011;43465;50.728;4.160;2023-04-16T10:48:47;9.35;;;5.57;;
57635;SDS011;43465;50.728;4.160;2023-04-16T10:54:21;11.98;;;5.03;;
57635;SDS011;43465;50.728;4.160;2023-04-16T10:56:50;7.10;;;5.07;;
57635;SDS011;43465;50.728;4.160;2023-04-16T10:59:19;9.68;;;4.60;;
57635;SDS011;43465;50.728;4.160;2023-04-16T11:01:51;9.13;;;5.05;;
57635;SDS011;43465;50.728;4.160;2023-04-16T11:09:44;8.45;;;4.68;;
57635;SDS011;43465;50.728;4.160;2023-04-16T11:14:51;15.60;;;6.30;;
57635;SDS011;43465;50.728;4.160;2023-04-16T11:17:19;13.38;;;6.82;;
57635;SDS011;43465;50.728;4.160;2023-04-16T11:19:45;10.18;;;6.53;;
57635;SDS011;43465;50.728;4.160;2023-04-16T11:22:12;17.73;;;7.20;;
57635;SDS011;43465;50.728;4.160;2023-04-16T11:24:41;13.55;;;7.32;;
57635;SDS011;43465;50.728;4.160;2023-04-16T11:27:11;12.30;;;7.03;;
57635;SDS011;43465;50.728;4.160;2023-04-16T11:29:37;13.85;;;7.18;;
57635;SDS011;43465;50.728;4.160;2023-04-16T11:32:03;15.48;;;7.50;;
57635;SDS011;43465;50.728;4.160;2023-04-16T11:34:29;14.35;;;7.40;;
57635;SDS011;43465;50.728;4.160;2023-04-16T11:36:55;13.90;;;7.22;;
57635;SDS011;43465;50.728;4.160;2023-04-16T11:39:21;11.23;;;7.68;;
57635;SDS011;43465;50.728;4.160;2023-04-16T11:41:48;15.02;;;7.30;;
57635;SDS011;43465;50.728;4.160;2023-04-16T11:44:23;13.98;;;7.80;;
57635;SDS011;43465;50.728;4.160;2023-04-16T11:46:50;13.02;;;7.40;;
57635;SDS011;43465;50.728;4.160;2023-04-16T11:49:25;13.50;;;7.22;;
57635;SDS011;43465;50.728;4.160;2023-04-16T11:51:51;12.20;;;6.60;;
57635;SDS011;43465;50.728;4.160;2023-04-16T11:54:18;10.77;;;6.65;;
57635;SDS011;43465;50.728;4.160;2023-04-16T11:56:45;11.73;;;6.63;;
57635;SDS011;43465;50.728;4.160;2023-04-16T11:59:12;14.07;;;5.90;;
57635;SDS011;43465;50.728;4.160;2023-04-16T12:01:40;14.57;;;6.03;;
57635;SDS011;43465;50.728;4.160;2023-04-16T12:04:09;12.80;;;6.38;;
57635;SDS011;43465;50.728;4.160;2023-04-16T12:06:37;13.10;;;8.70;;
57635;SDS011;43465;50.728;4.160;2023-04-16T12:11:48;9.93;;;5.03;;
57635;SDS011;43465;50.728;4.160;2023-04-16T12:14:13;12.02;;;6.65;;
57635;SDS011;43465;50.728;4.160;2023-04-16T12:16:39;14.40;;;6.40;;
57635;SDS011;43465;50.728;4.160;2023-04-16T12:19:05;12.02;;;6.50;;
57635;SDS011;43465;50.728;4.160;2023-04-16T12:21:41;9.05;;;6.32;;
57635;SDS011;43465;50.728;4.160;2023-04-16T12:24:09;13.48;;;6.47;;
57635;SDS011;43465;50.728;4.160;2023-04-16T12:31:47;13.55;;;6.85;;
57635;SDS011;43465;50.728;4.160;2023-04-16T12:34:14;11.93;;;6.10;;
57635;SDS011;43465;50.728;4.160;2023-04-16T12:36:41;11.73;;;6.30;;
57635;SDS011;43465;50.728;4.160;2023-04-16T12:39:08;17.20;;;8.02;;
57635;SDS011;43465;50.728;4.160;2023-04-16T12:41:38;10.20;;;7.35;;
57635;SDS011;43465;50.728;4.160;2023-04-16T12:44:09;14.23;;;7.47;;
57635;SDS011;43465;50.728;4.160;2023-04-16T12:46:36;16.60;;;8.27;;
57635;SDS011;43465;50.728;4.160;2023-04-16T12:49:03;12.68;;;7.30;;
57635;SDS011;43465;50.728;4.160;2023-04-16T12:51:29;13.07;;;7.22;;
57635;SDS011;43465;50.728;4.160;2023-04-16T12:53:55;13.38;;;7.43;;
57635;SDS011;43465;50.728;4.160;2023-04-16T12:56:21;10.73;;;6.85;;
57635;SDS011;43465;50.728;4.160;2023-04-16T12:58:47;14.10;;;7.53;;
57635;SDS011;43465;50.728;4.160;2023-04-16T13:01:17;10.85;;;6.97;;
57635;SDS011;43465;50.728;4.160;2023-04-16T13:03:43;13.18;;;6.72;;
57635;SDS011;43465;50.728;4.160;2023-04-16T13:06:09;10.57;;;6.75;;
57635;SDS011;43465;50.728;4.160;2023-04-16T13:08:35;11.55;;;7.13;;
57635;SDS011;43465;50.728;4.160;2023-04-16T13:11:01;11.80;;;6.95;;
57635;SDS011;43465;50.728;4.160;2023-04-16T13:13:27;12.55;;;7.13;;
57635;SDS011;43465;50.728;4.160;2023-04-16T13:15:53;13.82;;;7.20;;
57635;SDS011;43465;50.728;4.160;2023-04-16T13:18:18;16.23;;;8.73;;
57635;SDS011;43465;50.728;4.160;2023-04-16T13:20:44;12.70;;;7.25;;
57635;SDS011;43465;50.728;4.160;2023-04-16T13:23:10;12.60;;;7.53;;
57635;SDS011;43465;50.728;4.160;2023-04-16T13:25:36;13.43;;;7.82;;
57635;SDS011;43465;50.728;4.160;2023-04-16T13:28:01;14.90;;;7.32;;
57635;SDS011;43465;50.728;4.160;2023-04-16T13:30:27;10.73;;;7.22;;
57635;SDS011;43465;50.728;4.160;2023-04-16T13:32:57;18.30;;;7.68;;
57635;SDS011;43465;50.728;4.160;2023-04-16T13:35:23;13.48;;;6.88;;
57635;SDS011;43465;50.728;4.160;2023-04-16T13:37:49;14.00;;;6.88;;
57635;SDS011;43465;50.728;4.160;2023-04-16T13:40:15;12.15;;;6.93;;
57635;SDS011;43465;50.728;4.160;2023-04-16T13:42:41;13.05;;;7.25;;
57635;SDS011;43465;50.728;4.160;2023-04-16T13:45:06;18.23;;;9.55;;
57635;SDS011;43465;50.728;4.160;2023-04-16T13:47:33;13.05;;;7.75;;
57635;SDS011;43465;50.728;4.160;2023-04-16T13:50:00;15.98;;;8.75;;
57635;SDS011;43465;50.728;4.160;2023-04-16T13:52:26;12.65;;;7.03;;
57635;SDS011;43465;50.728;4.160;2023-04-16T13:54:51;11.55;;;7.20;;
57635;SDS011;43465;50.728;4.160;2023-04-16T13:57:17;10.48;;;7.03;;
57635;SDS011;43465;50.728;4.160;2023-04-16T13:59:43;12.20;;;6.70;;
57635;SDS011;43465;50.728;4.160;2023-04-16T14:02:09;13.77;;;10.85;;
57635;SDS011;43465;50.728;4.160;2023-04-16T14:04:36;13.15;;;9.38;;
57635;SDS011;43465;50.728;4.160;2023-04-16T14:07:01;15.70;;;8.70;;
57635;SDS011;43465;50.728;4.160;2023-04-16T14:09:27;12.45;;;7.85;;
57635;SDS011;43465;50.728;4.160;2023-04-16T14:11:53;11.68;;;8.23;;
57635;SDS011;43465;50.728;4.160;2023-04-16T14:14:19;11.45;;;7.78;;
57635;SDS011;43465;50.728;4.160;2023-04-16T14:16:45;13.70;;;7.95;;
57635;SDS011;43465;50.728;4.160;2023-04-16T14:19:10;8.85;;;7.47;;
57635;SDS011;43465;50.728;4.160;2023-04-16T14:21:36;10.85;;;7.65;;
57635;SDS011;43465;50.728;4.160;2023-04-16T14:24:02;12.68;;;8.15;;
57635;SDS011;43465;50.728;4.160;2023-04-16T14:26:28;12.68;;;8.10;;
57635;SDS011;43465;50.728;4.160;2023-04-16T14:28:54;13.40;;;8.38;;
57635;SDS011;43465;50.728;4.160;2023-04-16T14:31:19;11.32;;;7.97;;
57635;SDS011;43465;50.728;4.160;2023-04-16T14:33:45;14.75;;;8.50;;
57635;SDS011;43465;50.728;4.160;2023-04-16T14:36:11;15.02;;;8.80;;
57635;SDS011;43465;50.728;4.160;2023-04-16T14:38:36;10.73;;;8.50;;
57635;SDS011;43465;50.728;4.160;2023-04-16T14:41:02;10.68;;;8.82;;
57635;SDS011;43465;50.728;4.160;2023-04-16T14:43:28;14.15;;;8.25;;
57635;SDS011;43465;50.728;4.160;2023-04-16T14:45:54;12.35;;;8.27;;
57635;SDS011;43465;50.728;4.160;2023-04-16T14:48:21;11.50;;;8.27;;
57635;SDS011;43465;50.728;4.160;2023-04-16T14:50:46;13.07;;;8.73;;
57635;SDS011;43465;50.728;4.160;2023-04-16T14:53:12;9.65;;;7.60;;
57635;SDS011;43465;50.728;4.160;2023-04-16T14:55:38;11.10;;;7.82;;
57635;SDS011;43465;50.728;4.160;2023-04-16T14:58:03;9.77;;;7.32;;
57635;SDS011;43465;50.728;4.160;2023-04-16T15:00:29;8.68;;;7.47;;